Strona główna
METAR-TAF:

METAR-TAF

Lotnisko :

Port lotniczy Kununurra

Kununurra, Australia

Szerokość geograficzna: 15-46S, Długość geograficzna: 128-42E, wysokość: 44 m

Aktualna obserwacja pogody

Raport powstał 42 minut temu, godzina 14:30 UTC
Wiatr 3 kt od wschodnio-południowy wschód
Temperatura 14°C
Wilgotność 72%
Ciśnienie 1015 hPa
Widzialność 10 km lub więcej

METAR: YPKU 171430Z AUTO 12003KT 9999 // NCD 14/09 Q1015 RF00.0/000.0

czas: 23:12 (15:12 UTC)

Prognoza

Raport powstał 2 godziny i 19 minut temu, godzina 12:53 UTC
Prognoza ważna od 17 godzina 14 UTC do 18 godzina 02 UTC
Wiatr 5 kt od południowy wschód
Widzialność 10 km lub więcej
Brak chmur poniżej 1500 m i brak chmur cumulonimbus
Od 18 godzina 0000 UTC
Wiatr 12 kt od wschodnio-południowy wschód
Widzialność 10 km lub więcej
Brak chmur poniżej 1500 m i brak chmur cumulonimbus

TAF: YPKU 171253Z 1714/1802 14005KT CAVOK FM180000 12012KT CAVOK

Obserwacja i prognoza pogody dla ponad 4000 lotnisk (raport METAR i TAF).

Dostępne stacje oznaczono żółtymi i czerwonymi punktami na mapie.

Najedź kursorem aby zobaczyć nazwę stacji.

Kliknij aby zobaczyć obserwacje i prognozy pogody.

Aby zmienić mapę: kliknij na zielony przycisk z czarnym krzyżykiem, aby powiększyć; na zielony przycisk z myślnikiem, aby pomniejszyć; na zielone strzałki, aby przejść do map sąsiednich.


METAR-TAF: